sensor_id;sensor_type;location;lat;lon;timestamp;pressure;altitude;pressure_sealevel;temperature;humidity
39455;BME280;25155;41.890;23.446;2023-04-30T00:01:00;91615.97;;;7.67;55.28
39455;BME280;25155;41.890;23.446;2023-04-30T00:03:28;91605.88;;;7.50;54.98
39455;BME280;25155;41.890;23.446;2023-04-30T00:05:55;91611.13;;;7.45;55.08
39455;BME280;25155;41.890;23.446;2023-04-30T00:08:22;91606.69;;;7.46;55.66
39455;BME280;25155;41.890;23.446;2023-04-30T00:10:50;91614.25;;;7.47;55.96
39455;BME280;25155;41.890;23.446;2023-04-30T00:13:17;91609.59;;;7.44;55.67
39455;BME280;25155;41.890;23.446;2023-04-30T00:15:44;91607.00;;;7.44;55.82
39455;BME280;25155;41.890;23.446;2023-04-30T00:18:11;91602.31;;;7.41;55.62
39455;BME280;25155;41.890;23.446;2023-04-30T00:20:40;91607.00;;;7.39;55.47
39455;BME280;25155;41.890;23.446;2023-04-30T00:23:07;91607.53;;;7.41;56.29
39455;BME280;25155;41.890;23.446;2023-04-30T00:25:34;91601.03;;;7.28;55.99
39455;BME280;25155;41.890;23.446;2023-04-30T00:28:01;91598.72;;;7.22;56.12
39455;BME280;25155;41.890;23.446;2023-04-30T00:30:28;91596.88;;;7.22;55.97
39455;BME280;25155;41.890;23.446;2023-04-30T00:32:56;91604.50;;;7.13;58.48
39455;BME280;25155;41.890;23.446;2023-04-30T00:35:23;91605.56;;;7.07;58.14
39455;BME280;25155;41.890;23.446;2023-04-30T00:37:51;91612.34;;;7.08;57.20
39455;BME280;25155;41.890;23.446;2023-04-30T00:40:19;91612.81;;;7.15;57.11
39455;BME280;25155;41.890;23.446;2023-04-30T00:42:46;91608.63;;;7.20;56.58
39455;BME280;25155;41.890;23.446;2023-04-30T00:45:14;91613.28;;;7.23;56.54
39455;BME280;25155;41.890;23.446;2023-04-30T00:47:42;91617.50;;;7.19;56.80
39455;BME280;25155;41.890;23.446;2023-04-30T00:50:10;91609.41;;;7.20;56.93
39455;BME280;25155;41.890;23.446;2023-04-30T00:52:40;91605.78;;;7.21;56.69
39455;BME280;25155;41.890;23.446;2023-04-30T00:55:10;91598.72;;;7.22;56.58
39455;BME280;25155;41.890;23.446;2023-04-30T00:57:38;91588.84;;;7.13;56.65
39455;BME280;25155;41.890;23.446;2023-04-30T01:00:07;91598.72;;;7.22;56.75
39455;BME280;25155;41.890;23.446;2023-04-30T01:02:36;91606.59;;;7.11;58.27
39455;BME280;25155;41.890;23.446;2023-04-30T01:05:04;91611.28;;;7.09;57.33
39455;BME280;25155;41.890;23.446;2023-04-30T01:07:33;91599.56;;;7.07;57.44
39455;BME280;25155;41.890;23.446;2023-04-30T01:10:00;91599.31;;;7.08;57.75
39455;BME280;25155;41.890;23.446;2023-04-30T01:12:36;91603.22;;;7.06;58.15
39455;BME280;25155;41.890;23.446;2023-04-30T01:15:08;91592.31;;;6.98;57.60
39455;BME280;25155;41.890;23.446;2023-04-30T01:17:44;91597.78;;;6.97;57.72
39455;BME280;25155;41.890;23.446;2023-04-30T01:20:14;91603.75;;;6.97;58.33
39455;BME280;25155;41.890;23.446;2023-04-30T01:22:45;91594.16;;;6.88;58.20
39455;BME280;25155;41.890;23.446;2023-04-30T01:25:30;91596.00;;;6.82;57.83
39455;BME280;25155;41.890;23.446;2023-04-30T01:28:04;91602.25;;;6.81;58.54
39455;BME280;25155;41.890;23.446;2023-04-30T01:30:33;91599.41;;;6.77;58.40
39455;BME280;25155;41.890;23.446;2023-04-30T01:33:01;91585.38;;;6.73;58.34
39455;BME280;25155;41.890;23.446;2023-04-30T01:35:53;91591.09;;;6.70;59.01
39455;BME280;25155;41.890;23.446;2023-04-30T01:38:34;91595.53;;;6.70;59.04
39455;BME280;25155;41.890;23.446;2023-04-30T01:41:07;91594.28;;;6.41;59.55
39455;BME280;25155;41.890;23.446;2023-04-30T01:43:45;91590.38;;;6.49;59.76
39455;BME280;25155;41.890;23.446;2023-04-30T01:46:21;91601.56;;;6.45;59.53
39455;BME280;25155;41.890;23.446;2023-04-30T01:48:56;91592.47;;;6.47;60.21
39455;BME280;25155;41.890;23.446;2023-04-30T01:51:31;91591.41;;;6.48;60.60
39455;BME280;25155;41.890;23.446;2023-04-30T01:54:10;91600.28;;;6.42;60.15
39455;BME280;25155;41.890;23.446;2023-04-30T01:56:50;91585.47;;;6.22;62.79
39455;BME280;25155;41.890;23.446;2023-04-30T01:59:22;91597.47;;;6.02;63.34
39455;BME280;25155;41.890;23.446;2023-04-30T02:01:49;91595.88;;;6.01;63.09
39455;BME280;25155;41.890;23.446;2023-04-30T02:04:16;91591.72;;;6.05;62.65
39455;BME280;25155;41.890;23.446;2023-04-30T02:06:43;91589.91;;;6.11;62.52
39455;BME280;25155;41.890;23.446;2023-04-30T02:09:11;91586.53;;;6.16;61.80
39455;BME280;25155;41.890;23.446;2023-04-30T02:11:39;91581.03;;;6.22;61.29
39455;BME280;25155;41.890;23.446;2023-04-30T02:14:06;91585.47;;;6.22;61.57
39455;BME280;25155;41.890;23.446;2023-04-30T02:16:34;91598.50;;;6.17;61.21
39455;BME280;25155;41.890;23.446;2023-04-30T02:19:01;91585.50;;;6.17;61.17
39455;BME280;25155;41.890;23.446;2023-04-30T02:21:28;91595.34;;;6.20;60.92
39455;BME280;25155;41.890;23.446;2023-04-30T02:23:56;91584.19;;;6.14;61.27
39455;BME280;25155;41.890;23.446;2023-04-30T02:26:23;91589.88;;;6.16;60.89
39455;BME280;25155;41.890;23.446;2023-04-30T02:28:51;91589.63;;;6.18;60.71
39455;BME280;25155;41.890;23.446;2023-04-30T02:31:18;91583.91;;;6.21;60.61
39455;BME280;25155;41.890;23.446;2023-04-30T02:33:46;91584.41;;;6.23;60.22
39455;BME280;25155;41.890;23.446;2023-04-30T02:36:13;91586.00;;;6.24;60.21
39455;BME280;25155;41.890;23.446;2023-04-30T02:38:41;91581.31;;;6.21;59.93
39455;BME280;25155;41.890;23.446;2023-04-30T02:41:08;91574.53;;;6.15;60.33
39455;BME280;25155;41.890;23.446;2023-04-30T02:43:35;91588.88;;;6.02;61.96
39455;BME280;25155;41.890;23.446;2023-04-30T02:46:02;91592.78;;;5.89;61.93
39455;BME280;25155;41.890;23.446;2023-04-30T02:48:31;91584.47;;;5.87;61.36
39455;BME280;25155;41.890;23.446;2023-04-30T02:51:00;91590.19;;;5.84;60.96
39455;BME280;25155;41.890;23.446;2023-04-30T02:53:27;91594.84;;;5.82;60.99
39455;BME280;25155;41.890;23.446;2023-04-30T02:55:54;91593.81;;;5.83;61.52
39455;BME280;25155;41.890;23.446;2023-04-30T02:58:21;91590.44;;;5.77;61.33
39455;BME280;25155;41.890;23.446;2023-04-30T03:00:48;91593.28;;;5.71;61.50
39455;BME280;25155;41.890;23.446;2023-04-30T03:03:15;91597.69;;;5.65;61.12
39455;BME280;25155;41.890;23.446;2023-04-30T03:05:42;91593.00;;;5.62;61.38
39455;BME280;25155;41.890;23.446;2023-04-30T03:08:10;91600.03;;;5.51;61.33
39455;BME280;25155;41.890;23.446;2023-04-30T03:10:38;91604.41;;;5.45;61.60
39455;BME280;25155;41.890;23.446;2023-04-30T03:13:05;91603.66;;;5.45;61.81
39455;BME280;25155;41.890;23.446;2023-04-30T03:15:32;91600.25;;;5.39;61.32
39455;BME280;25155;41.890;23.446;2023-04-30T03:17:59;91604.91;;;5.42;60.83
39455;BME280;25155;41.890;23.446;2023-04-30T03:20:26;91610.88;;;5.38;61.32
39455;BME280;25155;41.890;23.446;2023-04-30T03:22:53;91611.66;;;5.38;61.19
39455;BME280;25155;41.890;23.446;2023-04-30T03:25:22;91607.22;;;5.39;61.19
39455;BME280;25155;41.890;23.446;2023-04-30T03:27:49;91612.97;;;5.41;60.89
39455;BME280;25155;41.890;23.446;2023-04-30T03:30:16;91612.97;;;5.41;60.94
39455;BME280;25155;41.890;23.446;2023-04-30T03:32:43;91607.78;;;5.41;61.10
39455;BME280;25155;41.890;23.446;2023-04-30T03:35:10;91610.63;;;5.39;61.16
39455;BME280;25155;41.890;23.446;2023-04-30T03:37:37;91617.09;;;5.37;60.79
39455;BME280;25155;41.890;23.446;2023-04-30T03:40:05;91622.56;;;5.35;60.83
39455;BME280;25155;41.890;23.446;2023-04-30T03:42:34;91619.69;;;5.26;61.55
39455;BME280;25155;41.890;23.446;2023-04-30T03:45:01;91629.03;;;5.27;61.11
39455;BME280;25155;41.890;23.446;2023-04-30T03:47:29;91621.22;;;5.27;61.36
39455;BME280;25155;41.890;23.446;2023-04-30T03:49:56;91627.75;;;5.30;61.31
39455;BME280;25155;41.890;23.446;2023-04-30T03:52:23;91633.19;;;5.23;62.28
39455;BME280;25155;41.890;23.446;2023-04-30T03:54:51;91632.91;;;5.20;61.86
39455;BME280;25155;41.890;23.446;2023-04-30T03:57:18;91633.69;;;5.15;61.95
39455;BME280;25155;41.890;23.446;2023-04-30T03:59:47;91636.25;;;5.10;61.74
39455;BME280;25155;41.890;23.446;2023-04-30T04:02:14;91643.53;;;5.13;62.00
39455;BME280;25155;41.890;23.446;2023-04-30T04:04:42;91644.81;;;5.05;64.04
39455;BME280;25155;41.890;23.446;2023-04-30T04:07:09;91637.53;;;5.02;63.62
39455;BME280;25155;41.890;23.446;2023-04-30T04:09:36;91637.25;;;5.04;63.21
39455;BME280;25155;41.890;23.446;2023-04-30T04:12:04;91636.97;;;4.95;65.40
39455;BME280;25155;41.890;23.446;2023-04-30T04:14:31;91649.66;;;4.86;64.89
39455;BME280;25155;41.890;23.446;2023-04-30T04:17:00;91639.03;;;4.88;64.31
39455;BME280;25155;41.890;23.446;2023-04-30T04:19:30;91638.81;;;4.94;63.81
39455;BME280;25155;41.890;23.446;2023-04-30T04:21:57;91635.72;;;5.03;63.58
39455;BME280;25155;41.890;23.446;2023-04-30T04:24:24;91645.31;;;5.02;65.71
39455;BME280;25155;41.890;23.446;2023-04-30T04:26:51;91645.53;;;4.95;66.76
39455;BME280;25155;41.890;23.446;2023-04-30T04:29:19;91643.44;;;4.92;67.00
39455;BME280;25155;41.890;23.446;2023-04-30T04:31:46;91653.34;;;4.95;66.26
39455;BME280;25155;41.890;23.446;2023-04-30T04:34:17;91651.06;;;5.04;66.00
39455;BME280;25155;41.890;23.446;2023-04-30T04:36:44;91652.88;;;5.14;65.40
39455;BME280;25155;41.890;23.446;2023-04-30T04:39:11;91654.47;;;5.20;65.39
39455;BME280;25155;41.890;23.446;2023-04-30T04:41:39;91655.00;;;5.27;65.07
39455;BME280;25155;41.890;23.446;2023-04-30T04:44:07;91667.25;;;5.32;65.67
39455;BME280;25155;41.890;23.446;2023-04-30T04:46:34;91665.47;;;5.38;66.13
39455;BME280;25155;41.890;23.446;2023-04-30T04:49:02;91663.94;;;5.47;65.77
39455;BME280;25155;41.890;23.446;2023-04-30T04:51:31;91662.91;;;5.53;66.04
39455;BME280;25155;41.890;23.446;2023-04-30T04:53:58;91672.81;;;5.61;65.81
39455;BME280;25155;41.890;23.446;2023-04-30T04:56:25;91672.84;;;5.66;66.10
39455;BME280;25155;41.890;23.446;2023-04-30T04:58:52;91674.94;;;5.75;65.94
39455;BME280;25155;41.890;23.446;2023-04-30T05:01:20;91672.34;;;5.80;66.01
39455;BME280;25155;41.890;23.446;2023-04-30T05:03:52;91668.19;;;5.79;66.14
39455;BME280;25155;41.890;23.446;2023-04-30T05:06:20;91667.69;;;5.87;66.19
39455;BME280;25155;41.890;23.446;2023-04-30T05:08:48;91674.94;;;5.90;66.14
39455;BME280;25155;41.890;23.446;2023-04-30T05:11:15;91671.84;;;5.98;65.64
39455;BME280;25155;41.890;23.446;2023-04-30T05:13:42;91672.63;;;6.09;65.43
39455;BME280;25155;41.890;23.446;2023-04-30T05:16:09;91669.00;;;6.15;64.71
39455;BME280;25155;41.890;23.446;2023-04-30T05:18:36;91674.72;;;6.22;64.45
39455;BME280;25155;41.890;23.446;2023-04-30T05:21:03;91679.94;;;6.28;64.76
39455;BME280;25155;41.890;23.446;2023-04-30T05:23:30;91687.47;;;6.34;64.45
39455;BME280;25155;41.890;23.446;2023-04-30T05:25:59;91689.31;;;6.39;64.28
39455;BME280;25155;41.890;23.446;2023-04-30T05:28:27;91682.78;;;6.41;64.27
39455;BME280;25155;41.890;23.446;2023-04-30T05:30:54;91678.38;;;6.42;64.51
39455;BME280;25155;41.890;23.446;2023-04-30T05:33:21;91691.63;;;6.46;64.66
39455;BME280;25155;41.890;23.446;2023-04-30T05:35:48;91690.06;;;6.50;64.84
39455;BME280;25155;41.890;23.446;2023-04-30T05:38:15;91679.13;;;6.53;65.28
39455;BME280;25155;41.890;23.446;2023-04-30T05:40:42;91682.53;;;6.53;65.23
39455;BME280;25155;41.890;23.446;2023-04-30T05:43:10;91689.03;;;6.56;65.35
39455;BME280;25155;41.890;23.446;2023-04-30T05:45:37;91689.53;;;6.63;64.82
39455;BME280;25155;41.890;23.446;2023-04-30T05:48:05;91689.00;;;6.66;65.15
39455;BME280;25155;41.890;23.446;2023-04-30T05:50:32;91695.81;;;6.62;65.01
39455;BME280;25155;41.890;23.446;2023-04-30T05:53:00;91689.78;;;6.56;65.67
39455;BME280;25155;41.890;23.446;2023-04-30T05:55:27;91697.34;;;6.58;65.13
39455;BME280;25155;41.890;23.446;2023-04-30T05:57:54;91703.09;;;6.65;65.08
39455;BME280;25155;41.890;23.446;2023-04-30T06:00:22;91705.16;;;6.68;65.22
39455;BME280;25155;41.890;23.446;2023-04-30T06:02:49;91698.13;;;6.69;65.39
39455;BME280;25155;41.890;23.446;2023-04-30T06:05:17;91706.72;;;6.74;64.86
39455;BME280;25155;41.890;23.446;2023-04-30T06:07:44;91702.56;;;6.78;64.64
39455;BME280;25155;41.890;23.446;2023-04-30T06:10:11;91697.34;;;6.78;65.24
39455;BME280;25155;41.890;23.446;2023-04-30T06:12:38;91700.75;;;6.69;65.77
39455;BME280;25155;41.890;23.446;2023-04-30T06:15:06;91710.38;;;6.68;65.99
39455;BME280;25155;41.890;23.446;2023-04-30T06:17:35;91707.53;;;6.70;66.26
39455;BME280;25155;41.890;23.446;2023-04-30T06:20:02;91703.84;;;6.76;65.59
39455;BME280;25155;41.890;23.446;2023-04-30T06:22:31;91707.78;;;6.73;65.72
39455;BME280;25155;41.890;23.446;2023-04-30T06:24:59;91699.69;;;6.75;66.16
39455;BME280;25155;41.890;23.446;2023-04-30T06:27:26;91702.28;;;6.80;66.51
39455;BME280;25155;41.890;23.446;2023-04-30T06:29:53;91703.84;;;6.81;66.88
39455;BME280;25155;41.890;23.446;2023-04-30T06:32:20;91702.03;;;6.82;67.46
39455;BME280;25155;41.890;23.446;2023-04-30T06:34:49;91706.44;;;6.86;67.89
39455;BME280;25155;41.890;23.446;2023-04-30T06:37:16;91701.22;;;6.91;67.43
39455;BME280;25155;41.890;23.446;2023-04-30T06:39:43;91694.44;;;7.01;67.44
39455;BME280;25155;41.890;23.446;2023-04-30T06:42:10;91684.50;;;7.08;67.32
39455;BME280;25155;41.890;23.446;2023-04-30T06:44:37;91685.78;;;7.15;67.17
39455;BME280;25155;41.890;23.446;2023-04-30T06:47:04;91687.34;;;7.22;66.78
39455;BME280;25155;41.890;23.446;2023-04-30T06:49:31;91688.63;;;7.24;66.21
39455;BME280;25155;41.890;23.446;2023-04-30T06:52:00;91693.53;;;7.31;66.06
39455;BME280;25155;41.890;23.446;2023-04-30T06:54:27;91690.16;;;7.41;65.65
39455;BME280;25155;41.890;23.446;2023-04-30T06:56:54;91684.13;;;7.50;65.37
39455;BME280;25155;41.890;23.446;2023-04-30T06:59:22;91691.34;;;7.64;65.63
39455;BME280;25155;41.890;23.446;2023-04-30T07:01:49;91692.88;;;7.75;65.65
39455;BME280;25155;41.890;23.446;2023-04-30T07:04:16;91695.94;;;7.87;65.20
39455;BME280;25155;41.890;23.446;2023-04-30T07:06:44;91699.53;;;7.97;65.10
39455;BME280;25155;41.890;23.446;2023-04-30T07:09:12;91695.88;;;7.98;64.10
39455;BME280;25155;41.890;23.446;2023-04-30T07:11:40;91696.34;;;8.05;64.07
39455;BME280;25155;41.890;23.446;2023-04-30T07:14:07;91694.25;;;8.12;63.59
39455;BME280;25155;41.890;23.446;2023-04-30T07:16:34;91694.16;;;8.22;63.94
39455;BME280;25155;41.890;23.446;2023-04-30T07:19:01;91698.25;;;8.34;63.89
39455;BME280;25155;41.890;23.446;2023-04-30T07:21:28;91707.00;;;8.48;63.94
39455;BME280;25155;41.890;23.446;2023-04-30T07:23:57;91703.28;;;8.59;64.54
39455;BME280;25155;41.890;23.446;2023-04-30T07:26:25;91700.03;;;8.73;64.87
39455;BME280;25155;41.890;23.446;2023-04-30T07:28:53;91706.72;;;8.84;65.34
39455;BME280;25155;41.890;23.446;2023-04-30T07:31:20;91703.53;;;8.92;64.85
39455;BME280;25155;41.890;23.446;2023-04-30T07:33:47;91704.22;;;9.03;64.63
39455;BME280;25155;41.890;23.446;2023-04-30T07:36:15;91709.63;;;9.12;64.33
39455;BME280;25155;41.890;23.446;2023-04-30T07:38:42;91714.25;;;9.20;64.23
39455;BME280;25155;41.890;23.446;2023-04-30T07:41:09;91711.03;;;9.28;63.77
39455;BME280;25155;41.890;23.446;2023-04-30T07:43:38;91703.47;;;9.27;63.32
39455;BME280;25155;41.890;23.446;2023-04-30T07:46:05;91701.84;;;9.31;63.47
39455;BME280;25155;41.890;23.446;2023-04-30T07:48:32;91705.69;;;9.39;63.05
39455;BME280;25155;41.890;23.446;2023-04-30T07:50:59;91697.22;;;9.47;63.21
39455;BME280;25155;41.890;23.446;2023-04-30T07:53:26;91707.84;;;9.55;62.95
39455;BME280;25155;41.890;23.446;2023-04-30T07:55:53;91712.47;;;9.64;61.08
39455;BME280;25155;41.890;23.446;2023-04-30T07:58:20;91706.94;;;9.65;60.36
39455;BME280;25155;41.890;23.446;2023-04-30T08:00:49;91701.16;;;9.68;60.97
39455;BME280;25155;41.890;23.446;2023-04-30T08:03:16;91700.53;;;9.77;61.05
39455;BME280;25155;41.890;23.446;2023-04-30T08:05:45;91701.44;;;9.86;60.39
39455;BME280;25155;41.890;23.446;2023-04-30T08:08:12;91700.81;;;9.94;60.52
39455;BME280;25155;41.890;23.446;2023-04-30T08:10:39;91697.91;;;9.96;59.89
39455;BME280;25155;41.890;23.446;2023-04-30T08:13:06;91698.94;;;10.00;60.66
39455;BME280;25155;41.890;23.446;2023-04-30T08:15:33;91695.81;;;10.17;60.35
39455;BME280;25155;41.890;23.446;2023-04-30T08:18:02;91699.34;;;10.26;57.76
39455;BME280;25155;41.890;23.446;2023-04-30T08:20:30;91695.47;;;10.42;59.58
39455;BME280;25155;41.890;23.446;2023-04-30T08:22:57;91692.81;;;10.61;58.67
39455;BME280;25155;41.890;23.446;2023-04-30T08:25:24;91682.88;;;10.77;57.76
39455;BME280;25155;41.890;23.446;2023-04-30T08:27:51;91682.59;;;10.93;58.04
39455;BME280;25155;41.890;23.446;2023-04-30T08:30:18;91677.16;;;11.03;55.37
39455;BME280;25155;41.890;23.446;2023-04-30T08:32:45;91678.06;;;11.12;55.57
39455;BME280;25155;41.890;23.446;2023-04-30T08:35:14;91677.31;;;11.26;54.58
39455;BME280;25155;41.890;23.446;2023-04-30T08:37:42;91668.25;;;11.46;56.05
39455;BME280;25155;41.890;23.446;2023-04-30T08:40:10;91660.09;;;11.61;54.17
39455;BME280;25155;41.890;23.446;2023-04-30T08:42:44;91659.53;;;11.64;53.51
39455;BME280;25155;41.890;23.446;2023-04-30T08:45:12;91659.31;;;11.74;53.26
39455;BME280;25155;41.890;23.446;2023-04-30T08:47:39;91663.56;;;11.84;54.00
39455;BME280;25155;41.890;23.446;2023-04-30T08:50:07;91661.81;;;11.93;52.77
39455;BME280;25155;41.890;23.446;2023-04-30T08:52:37;91660.63;;;12.00;53.07
39455;BME280;25155;41.890;23.446;2023-04-30T08:55:07;91656.72;;;12.11;53.39
39455;BME280;25155;41.890;23.446;2023-04-30T08:57:36;91654.34;;;12.23;53.80
39455;BME280;25155;41.890;23.446;2023-04-30T09:00:04;91657.03;;;12.32;52.16
39455;BME280;25155;41.890;23.446;2023-04-30T09:02:32;91658.16;;;12.40;52.12
39455;BME280;25155;41.890;23.446;2023-04-30T09:04:59;91652.50;;;12.46;52.26
39455;BME280;25155;41.890;23.446;2023-04-30T09:07:26;91643.72;;;12.51;51.31
39455;BME280;25155;41.890;23.446;2023-04-30T09:09:58;91647.06;;;12.43;51.01
39455;BME280;25155;41.890;23.446;2023-04-30T09:12:25;91644.44;;;12.43;51.27
39455;BME280;25155;41.890;23.446;2023-04-30T09:15:00;91649.22;;;12.41;50.09
39455;BME280;25155;41.890;23.446;2023-04-30T09:17:29;91646.03;;;12.53;50.95
39455;BME280;25155;41.890;23.446;2023-04-30T09:20:05;91645.56;;;12.50;49.16
39455;BME280;25155;41.890;23.446;2023-04-30T09:22:34;91636.66;;;12.60;49.97
39455;BME280;25155;41.890;23.446;2023-04-30T09:25:04;91634.25;;;12.73;50.42
39455;BME280;25155;41.890;23.446;2023-04-30T09:27:31;91633.44;;;12.86;48.37
39455;BME280;25155;41.890;23.446;2023-04-30T09:29:59;91634.50;;;12.85;47.33
39455;BME280;25155;41.890;23.446;2023-04-30T09:32:26;91626.75;;;12.80;47.43
39455;BME280;25155;41.890;23.446;2023-04-30T09:34:54;91623.63;;;12.78;46.53
39455;BME280;25155;41.890;23.446;2023-04-30T09:37:21;91620.41;;;12.81;47.43
39455;BME280;25155;41.890;23.446;2023-04-30T09:39:50;91608.50;;;12.83;46.79
39455;BME280;25155;41.890;23.446;2023-04-30T09:42:19;91604.38;;;12.91;46.92
39455;BME280;25155;41.890;23.446;2023-04-30T09:44:46;91605.38;;;13.13;47.77
39455;BME280;25155;41.890;23.446;2023-04-30T09:47:14;91606.97;;;13.31;48.22
39455;BME280;25155;41.890;23.446;2023-04-30T09:49:42;91594.63;;;13.40;44.96
39455;BME280;25155;41.890;23.446;2023-04-30T09:52:10;91614.59;;;13.41;46.83
39455;BME280;25155;41.890;23.446;2023-04-30T09:54:37;91604.19;;;13.36;45.75
39455;BME280;25155;41.890;23.446;2023-04-30T09:57:09;91606.34;;;13.26;45.04
39455;BME280;25155;41.890;23.446;2023-04-30T09:59:41;91612.06;;;13.19;46.19
39455;BME280;25155;41.890;23.446;2023-04-30T10:02:09;91609.56;;;13.14;45.22
39455;BME280;25155;41.890;23.446;2023-04-30T10:04:41;91603.50;;;13.04;45.86
39455;BME280;25155;41.890;23.446;2023-04-30T10:07:12;91609.50;;;13.05;45.69
39455;BME280;25155;41.890;23.446;2023-04-30T10:09:43;91610.19;;;13.11;45.85
39455;BME280;25155;41.890;23.446;2023-04-30T10:12:14;91604.78;;;13.16;45.05
39455;BME280;25155;41.890;23.446;2023-04-30T10:14:51;91602.94;;;13.25;47.41
39455;BME280;25155;41.890;23.446;2023-04-30T10:17:22;91601.72;;;13.31;45.00
39455;BME280;25155;41.890;23.446;2023-04-30T10:19:51;91595.56;;;13.45;44.80
39455;BME280;25155;41.890;23.446;2023-04-30T10:22:21;91596.66;;;13.44;44.10
39455;BME280;25155;41.890;23.446;2023-04-30T10:24:48;91586.72;;;13.40;43.82
39455;BME280;25155;41.890;23.446;2023-04-30T10:27:17;91590.63;;;13.52;44.34
39455;BME280;25155;41.890;23.446;2023-04-30T10:29:48;91593.59;;;13.59;42.54
39455;BME280;25155;41.890;23.446;2023-04-30T10:32:16;91589.53;;;13.61;41.69
39455;BME280;25155;41.890;23.446;2023-04-30T10:34:48;91582.91;;;13.64;42.00
39455;BME280;25155;41.890;23.446;2023-04-30T10:37:23;91580.44;;;13.76;41.68
39455;BME280;25155;41.890;23.446;2023-04-30T10:39:51;91594.41;;;13.86;40.96
39455;BME280;25155;41.890;23.446;2023-04-30T10:42:19;91584.16;;;13.84;40.96
39455;BME280;25155;41.890;23.446;2023-04-30T10:44:48;91594.84;;;13.79;40.67
39455;BME280;25155;41.890;23.446;2023-04-30T10:47:15;91585.91;;;13.89;40.99
39455;BME280;25155;41.890;23.446;2023-04-30T10:49:44;91583.88;;;13.86;40.11
39455;BME280;25155;41.890;23.446;2023-04-30T10:52:12;91581.50;;;13.84;39.52
39455;BME280;25155;41.890;23.446;2023-04-30T10:54:48;91595.97;;;13.87;40.09
39455;BME280;25155;41.890;23.446;2023-04-30T10:57:17;91577.06;;;14.02;40.58
39455;BME280;25155;41.890;23.446;2023-04-30T10:59:53;91584.34;;;14.14;42.29
39455;BME280;25155;41.890;23.446;2023-04-30T11:02:40;91591.94;;;14.07;40.17
39455;BME280;25155;41.890;23.446;2023-04-30T11:05:10;91583.56;;;13.96;40.68
39455;BME280;25155;41.890;23.446;2023-04-30T11:07:45;91582.66;;;13.92;40.96
39455;BME280;25155;41.890;23.446;2023-04-30T11:10:14;91586.97;;;13.88;40.61
39455;BME280;25155;41.890;23.446;2023-04-30T11:12:46;91585.91;;;13.89;41.73
39455;BME280;25155;41.890;23.446;2023-04-30T11:15:16;91586.03;;;13.92;41.60
39455;BME280;25155;41.890;23.446;2023-04-30T11:17:44;91575.34;;;13.97;42.13
39455;BME280;25155;41.890;23.446;2023-04-30T11:20:12;91579.38;;;14.04;41.31
39455;BME280;25155;41.890;23.446;2023-04-30T11:22:40;91580.47;;;14.11;41.22
39455;BME280;25155;41.890;23.446;2023-04-30T11:25:08;91579.53;;;14.07;41.30
39455;BME280;25155;41.890;23.446;2023-04-30T11:27:39;91577.69;;;14.17;41.39
39455;BME280;25155;41.890;23.446;2023-04-30T11:30:11;91575.81;;;14.08;40.93
39455;BME280;25155;41.890;23.446;2023-04-30T11:32:43;91586.69;;;13.98;42.06
39455;BME280;25155;41.890;23.446;2023-04-30T11:35:12;91571.34;;;14.00;40.74
39455;BME280;25155;41.890;23.446;2023-04-30T11:37:40;91570.22;;;14.01;40.56
39455;BME280;25155;41.890;23.446;2023-04-30T11:40:10;91561.25;;;14.02;40.84
39455;BME280;25155;41.890;23.446;2023-04-30T11:42:38;91562.50;;;13.96;40.90
39455;BME280;25155;41.890;23.446;2023-04-30T11:45:08;91566.69;;;13.97;42.05
39455;BME280;25155;41.890;23.446;2023-04-30T11:47:47;91557.22;;;14.13;42.09
39455;BME280;25155;41.890;23.446;2023-04-30T11:50:16;91548.50;;;14.30;41.13
39455;BME280;25155;41.890;23.446;2023-04-30T11:52:48;91554.72;;;14.34;40.48
39455;BME280;25155;41.890;23.446;2023-04-30T11:55:18;91543.88;;;14.36;40.54
39455;BME280;25155;41.890;23.446;2023-04-30T11:57:47;91549.44;;;14.43;39.59
39455;BME280;25155;41.890;23.446;2023-04-30T12:00:16;91535.31;;;14.39;39.12
39455;BME280;25155;41.890;23.446;2023-04-30T12:02:46;91539.84;;;14.30;39.28
39455;BME280;25155;41.890;23.446;2023-04-30T12:05:15;91536.41;;;14.29;39.40
39455;BME280;25155;41.890;23.446;2023-04-30T12:07:49;91533.31;;;14.36;39.18
39455;BME280;25155;41.890;23.446;2023-04-30T12:10:18;91513.09;;;14.49;40.09
39455;BME280;25155;41.890;23.446;2023-04-30T12:12:46;91527.78;;;14.67;41.00
39455;BME280;25155;41.890;23.446;2023-04-30T12:15:15;91533.66;;;14.73;39.74
39455;BME280;25155;41.890;23.446;2023-04-30T12:17:42;91535.53;;;14.73;40.51
39455;BME280;25155;41.890;23.446;2023-04-30T12:20:12;91522.72;;;14.53;41.53
39455;BME280;25155;41.890;23.446;2023-04-30T12:22:41;91522.56;;;14.50;41.48
39455;BME280;25155;41.890;23.446;2023-04-30T12:25:12;91521.66;;;14.37;42.05
39455;BME280;25155;41.890;23.446;2023-04-30T12:27:40;91518.75;;;14.30;41.94
39455;BME280;25155;41.890;23.446;2023-04-30T12:30:08;91513.47;;;14.30;42.49
39455;BME280;25155;41.890;23.446;2023-04-30T12:32:40;91513.00;;;14.37;42.57
39455;BME280;25155;41.890;23.446;2023-04-30T12:35:08;91514.97;;;14.48;42.66
39455;BME280;25155;41.890;23.446;2023-04-30T12:37:42;91510.78;;;14.56;42.41
39455;BME280;25155;41.890;23.446;2023-04-30T12:40:12;91521.13;;;14.70;41.00
39455;BME280;25155;41.890;23.446;2023-04-30T12:42:40;91518.16;;;14.71;41.24
39455;BME280;25155;41.890;23.446;2023-04-30T12:45:09;91515.06;;;14.69;40.25
39455;BME280;25155;41.890;23.446;2023-04-30T12:47:40;91524.28;;;14.55;40.87
39455;BME280;25155;41.890;23.446;2023-04-30T12:50:08;91517.50;;;14.36;41.08
39455;BME280;25155;41.890;23.446;2023-04-30T12:52:37;91512.84;;;14.33;41.66
39455;BME280;25155;41.890;23.446;2023-04-30T12:55:16;91529.31;;;14.12;41.14
39455;BME280;25155;41.890;23.446;2023-04-30T12:58:01;91533.06;;;14.11;42.49
39455;BME280;25155;41.890;23.446;2023-04-30T13:00:42;91538.31;;;14.11;40.95
39455;BME280;25155;41.890;23.446;2023-04-30T13:03:09;91534.72;;;14.25;42.37
39455;BME280;25155;41.890;23.446;2023-04-30T13:05:36;91539.53;;;14.31;41.27